sensor_id;sensor_type;location;lat;lon;timestamp;P1;durP1;ratioP1;P2;durP2;ratioP2
8663;SDS011;4369;47.842;13.096;2023-05-10T00:01:43;12.57;;;9.40;;
8663;SDS011;4369;47.842;13.096;2023-05-10T00:04:10;9.93;;;7.83;;
8663;SDS011;4369;47.842;13.096;2023-05-10T00:06:38;9.37;;;8.47;;
8663;SDS011;4369;47.842;13.096;2023-05-10T00:09:05;10.10;;;8.00;;
8663;SDS011;4369;47.842;13.096;2023-05-10T00:11:32;8.83;;;7.80;;
8663;SDS011;4369;47.842;13.096;2023-05-10T00:13:58;9.53;;;8.40;;
8663;SDS011;4369;47.842;13.096;2023-05-10T00:16:25;9.60;;;7.90;;
8663;SDS011;4369;47.842;13.096;2023-05-10T00:18:52;9.57;;;8.57;;
8663;SDS011;4369;47.842;13.096;2023-05-10T00:21:19;7.67;;;6.87;;
8663;SDS011;4369;47.842;13.096;2023-05-10T00:23:47;7.50;;;6.57;;
8663;SDS011;4369;47.842;13.096;2023-05-10T00:26:14;9.40;;;7.50;;
8663;SDS011;4369;47.842;13.096;2023-05-10T00:28:41;8.17;;;7.37;;
8663;SDS011;4369;47.842;13.096;2023-05-10T00:31:08;7.73;;;7.03;;
8663;SDS011;4369;47.842;13.096;2023-05-10T00:33:35;7.77;;;7.00;;
8663;SDS011;4369;47.842;13.096;2023-05-10T00:36:02;7.13;;;6.43;;
8663;SDS011;4369;47.842;13.096;2023-05-10T00:38:32;8.83;;;6.40;;
8663;SDS011;4369;47.842;13.096;2023-05-10T00:41:01;6.80;;;6.20;;
8663;SDS011;4369;47.842;13.096;2023-05-10T00:43:27;7.80;;;6.30;;
8663;SDS011;4369;47.842;13.096;2023-05-10T00:45:54;6.87;;;6.13;;
8663;SDS011;4369;47.842;13.096;2023-05-10T00:48:21;6.23;;;5.53;;
8663;SDS011;4369;47.842;13.096;2023-05-10T00:50:48;7.37;;;6.67;;
8663;SDS011;4369;47.842;13.096;2023-05-10T00:53:15;8.23;;;6.60;;
8663;SDS011;4369;47.842;13.096;2023-05-10T00:55:42;6.97;;;6.07;;
8663;SDS011;4369;47.842;13.096;2023-05-10T00:58:11;8.07;;;6.10;;
8663;SDS011;4369;47.842;13.096;2023-05-10T01:00:38;6.30;;;5.70;;
8663;SDS011;4369;47.842;13.096;2023-05-10T01:03:09;6.53;;;5.93;;
8663;SDS011;4369;47.842;13.096;2023-05-10T01:05:36;6.17;;;5.57;;
8663;SDS011;4369;47.842;13.096;2023-05-10T01:08:03;6.87;;;6.17;;
8663;SDS011;4369;47.842;13.096;2023-05-10T01:10:31;6.37;;;5.57;;
8663;SDS011;4369;47.842;13.096;2023-05-10T01:12:58;6.80;;;5.53;;
8663;SDS011;4369;47.842;13.096;2023-05-10T01:15:27;7.63;;;6.63;;
8663;SDS011;4369;47.842;13.096;2023-05-10T01:17:54;6.27;;;5.67;;
8663;SDS011;4369;47.842;13.096;2023-05-10T01:20:22;5.63;;;5.07;;
8663;SDS011;4369;47.842;13.096;2023-05-10T01:22:57;5.43;;;4.90;;
8663;SDS011;4369;47.842;13.096;2023-05-10T01:25:58;5.63;;;5.10;;
8663;SDS011;4369;47.842;13.096;2023-05-10T01:29:10;5.47;;;4.97;;
8663;SDS011;4369;47.842;13.096;2023-05-10T01:34:57;6.50;;;4.43;;
8663;SDS011;4369;47.842;13.096;2023-05-10T01:37:31;5.07;;;4.63;;
8663;SDS011;4369;47.842;13.096;2023-05-10T01:40:06;6.83;;;4.77;;
8663;SDS011;4369;47.842;13.096;2023-05-10T01:42:40;6.47;;;4.43;;
8663;SDS011;4369;47.842;13.096;2023-05-10T01:45:14;4.50;;;4.10;;
8663;SDS011;4369;47.842;13.096;2023-05-10T01:47:50;4.70;;;4.20;;
8663;SDS011;4369;47.842;13.096;2023-05-10T01:50:30;4.50;;;4.10;;
8663;SDS011;4369;47.842;13.096;2023-05-10T01:52:59;4.63;;;4.23;;
8663;SDS011;4369;47.842;13.096;2023-05-10T01:55:29;4.40;;;4.00;;
8663;SDS011;4369;47.842;13.096;2023-05-10T01:58:00;4.47;;;4.03;;
8663;SDS011;4369;47.842;13.096;2023-05-10T02:00:30;4.53;;;4.13;;
8663;SDS011;4369;47.842;13.096;2023-05-10T02:02:57;4.30;;;4.00;;
8663;SDS011;4369;47.842;13.096;2023-05-10T02:05:29;4.47;;;4.07;;
8663;SDS011;4369;47.842;13.096;2023-05-10T02:07:59;3.60;;;3.30;;
8663;SDS011;4369;47.842;13.096;2023-05-10T02:10:27;4.17;;;3.53;;
8663;SDS011;4369;47.842;13.096;2023-05-10T02:12:55;4.13;;;3.50;;
8663;SDS011;4369;47.842;13.096;2023-05-10T02:15:25;8.60;;;3.90;;
8663;SDS011;4369;47.842;13.096;2023-05-10T02:17:54;2.73;;;2.47;;
8663;SDS011;4369;47.842;13.096;2023-05-10T02:20:22;1.67;;;1.57;;
8663;SDS011;4369;47.842;13.096;2023-05-10T02:22:52;2.20;;;1.33;;
8663;SDS011;4369;47.842;13.096;2023-05-10T02:25:22;3.03;;;1.60;;
8663;SDS011;4369;47.842;13.096;2023-05-10T02:27:50;1.37;;;1.10;;
8663;SDS011;4369;47.842;13.096;2023-05-10T02:30:20;1.40;;;0.97;;
8663;SDS011;4369;47.842;13.096;2023-05-10T02:32:48;1.00;;;0.90;;
8663;SDS011;4369;47.842;13.096;2023-05-10T02:35:16;0.80;;;0.80;;
8663;SDS011;4369;47.842;13.096;2023-05-10T02:37:43;0.80;;;0.80;;
8663;SDS011;4369;47.842;13.096;2023-05-10T02:40:13;1.60;;;1.17;;
8663;SDS011;4369;47.842;13.096;2023-05-10T02:42:43;1.80;;;1.30;;
8663;SDS011;4369;47.842;13.096;2023-05-10T02:45:12;1.10;;;1.07;;
8663;SDS011;4369;47.842;13.096;2023-05-10T02:47:41;6.50;;;1.57;;
8663;SDS011;4369;47.842;13.096;2023-05-10T02:50:09;1.63;;;1.53;;
8663;SDS011;4369;47.842;13.096;2023-05-10T02:52:39;3.30;;;1.60;;
8663;SDS011;4369;47.842;13.096;2023-05-10T02:55:09;1.60;;;1.50;;
8663;SDS011;4369;47.842;13.096;2023-05-10T02:57:40;2.60;;;1.90;;
8663;SDS011;4369;47.842;13.096;2023-05-10T03:00:12;2.47;;;2.37;;
8663;SDS011;4369;47.842;13.096;2023-05-10T03:02:39;2.80;;;2.50;;
8663;SDS011;4369;47.842;13.096;2023-05-10T03:05:06;2.57;;;2.47;;
8663;SDS011;4369;47.842;13.096;2023-05-10T03:07:34;3.10;;;2.90;;
8663;SDS011;4369;47.842;13.096;2023-05-10T03:10:01;3.20;;;3.00;;
8663;SDS011;4369;47.842;13.096;2023-05-10T03:12:31;3.60;;;3.10;;
8663;SDS011;4369;47.842;13.096;2023-05-10T03:15:10;3.17;;;2.73;;
8663;SDS011;4369;47.842;13.096;2023-05-10T03:17:41;3.50;;;3.17;;
8663;SDS011;4369;47.842;13.096;2023-05-10T03:20:15;3.30;;;3.00;;
8663;SDS011;4369;47.842;13.096;2023-05-10T03:22:47;4.43;;;3.60;;
8663;SDS011;4369;47.842;13.096;2023-05-10T03:25:17;3.60;;;3.07;;
8663;SDS011;4369;47.842;13.096;2023-05-10T03:27:47;3.20;;;2.90;;
8663;SDS011;4369;47.842;13.096;2023-05-10T03:30:16;2.30;;;2.20;;
8663;SDS011;4369;47.842;13.096;2023-05-10T03:32:43;2.13;;;1.80;;
8663;SDS011;4369;47.842;13.096;2023-05-10T03:35:10;2.13;;;1.60;;
8663;SDS011;4369;47.842;13.096;2023-05-10T03:37:39;1.50;;;1.40;;
8663;SDS011;4369;47.842;13.096;2023-05-10T03:40:06;1.17;;;1.17;;
8663;SDS011;4369;47.842;13.096;2023-05-10T03:42:34;3.23;;;1.50;;
8663;SDS011;4369;47.842;13.096;2023-05-10T03:45:01;2.37;;;0.97;;
8663;SDS011;4369;47.842;13.096;2023-05-10T03:47:29;1.90;;;1.10;;
8663;SDS011;4369;47.842;13.096;2023-05-10T03:49:56;1.80;;;1.00;;
8663;SDS011;4369;47.842;13.096;2023-05-10T03:52:23;2.03;;;1.17;;
8663;SDS011;4369;47.842;13.096;2023-05-10T03:54:50;2.33;;;1.00;;
8663;SDS011;4369;47.842;13.096;2023-05-10T03:57:17;0.53;;;0.53;;
8663;SDS011;4369;47.842;13.096;2023-05-10T03:59:44;1.53;;;0.80;;
8663;SDS011;4369;47.842;13.096;2023-05-10T04:02:10;1.20;;;0.90;;
8663;SDS011;4369;47.842;13.096;2023-05-10T04:04:39;0.90;;;0.80;;
8663;SDS011;4369;47.842;13.096;2023-05-10T04:07:06;0.80;;;0.80;;
8663;SDS011;4369;47.842;13.096;2023-05-10T04:09:32;2.43;;;1.00;;
8663;SDS011;4369;47.842;13.096;2023-05-10T04:11:59;2.70;;;1.30;;
8663;SDS011;4369;47.842;13.096;2023-05-10T04:14:27;2.00;;;0.90;;
8663;SDS011;4369;47.842;13.096;2023-05-10T04:16:54;1.77;;;0.70;;
8663;SDS011;4369;47.842;13.096;2023-05-10T04:19:21;1.20;;;0.80;;
8663;SDS011;4369;47.842;13.096;2023-05-10T04:21:49;0.97;;;0.90;;
8663;SDS011;4369;47.842;13.096;2023-05-10T04:24:16;2.67;;;1.63;;
8663;SDS011;4369;47.842;13.096;2023-05-10T04:26:43;1.93;;;1.47;;
8663;SDS011;4369;47.842;13.096;2023-05-10T04:29:10;1.53;;;1.30;;
8663;SDS011;4369;47.842;13.096;2023-05-10T04:31:37;0.90;;;0.90;;
8663;SDS011;4369;47.842;13.096;2023-05-10T04:34:04;1.73;;;0.90;;
8663;SDS011;4369;47.842;13.096;2023-05-10T04:36:31;3.07;;;1.87;;
8663;SDS011;4369;47.842;13.096;2023-05-10T04:39:01;2.23;;;1.53;;
8663;SDS011;4369;47.842;13.096;2023-05-10T04:41:29;1.40;;;1.30;;
8663;SDS011;4369;47.842;13.096;2023-05-10T04:43:55;1.70;;;1.40;;
8663;SDS011;4369;47.842;13.096;2023-05-10T04:46:22;1.30;;;1.20;;
8663;SDS011;4369;47.842;13.096;2023-05-10T04:48:49;2.93;;;1.50;;
8663;SDS011;4369;47.842;13.096;2023-05-10T04:51:16;2.63;;;1.40;;
8663;SDS011;4369;47.842;13.096;2023-05-10T04:53:43;7.43;;;1.70;;
8663;SDS011;4369;47.842;13.096;2023-05-10T04:56:11;3.53;;;1.60;;
8663;SDS011;4369;47.842;13.096;2023-05-10T04:58:38;1.43;;;1.30;;
8663;SDS011;4369;47.842;13.096;2023-05-10T05:01:05;1.53;;;1.30;;
8663;SDS011;4369;47.842;13.096;2023-05-10T05:03:33;9.23;;;2.83;;
8663;SDS011;4369;47.842;13.096;2023-05-10T05:06:00;1.77;;;1.67;;
8663;SDS011;4369;47.842;13.096;2023-05-10T05:08:27;1.80;;;1.70;;
8663;SDS011;4369;47.842;13.096;2023-05-10T05:10:54;2.73;;;1.73;;
8663;SDS011;4369;47.842;13.096;2023-05-10T05:13:22;2.20;;;2.00;;
8663;SDS011;4369;47.842;13.096;2023-05-10T05:15:49;2.50;;;1.80;;
8663;SDS011;4369;47.842;13.096;2023-05-10T05:18:16;2.60;;;1.50;;
8663;SDS011;4369;47.842;13.096;2023-05-10T05:20:43;3.07;;;2.17;;
8663;SDS011;4369;47.842;13.096;2023-05-10T05:23:10;3.23;;;2.77;;
8663;SDS011;4369;47.842;13.096;2023-05-10T05:25:36;2.70;;;2.50;;
8663;SDS011;4369;47.842;13.096;2023-05-10T05:28:03;4.37;;;3.03;;
8663;SDS011;4369;47.842;13.096;2023-05-10T05:30:32;7.97;;;4.23;;
8663;SDS011;4369;47.842;13.096;2023-05-10T05:32:58;5.03;;;4.53;;
8663;SDS011;4369;47.842;13.096;2023-05-10T05:35:25;6.03;;;5.20;;
8663;SDS011;4369;47.842;13.096;2023-05-10T05:37:52;5.33;;;4.67;;
8663;SDS011;4369;47.842;13.096;2023-05-10T05:40:19;5.73;;;4.67;;
8663;SDS011;4369;47.842;13.096;2023-05-10T05:42:46;6.50;;;4.97;;
8663;SDS011;4369;47.842;13.096;2023-05-10T05:45:13;6.90;;;6.00;;
8663;SDS011;4369;47.842;13.096;2023-05-10T05:47:41;5.33;;;4.83;;
8663;SDS011;4369;47.842;13.096;2023-05-10T05:50:08;5.43;;;4.93;;
8663;SDS011;4369;47.842;13.096;2023-05-10T05:52:36;5.27;;;4.77;;
8663;SDS011;4369;47.842;13.096;2023-05-10T05:55:03;5.30;;;4.77;;
8663;SDS011;4369;47.842;13.096;2023-05-10T05:57:30;6.03;;;4.93;;
8663;SDS011;4369;47.842;13.096;2023-05-10T05:59:57;4.47;;;4.00;;
8663;SDS011;4369;47.842;13.096;2023-05-10T06:02:24;7.30;;;6.17;;
8663;SDS011;4369;47.842;13.096;2023-05-10T06:04:52;7.27;;;5.57;;
8663;SDS011;4369;47.842;13.096;2023-05-10T06:07:19;6.03;;;4.30;;
8663;SDS011;4369;47.842;13.096;2023-05-10T06:09:46;4.10;;;3.10;;
8663;SDS011;4369;47.842;13.096;2023-05-10T06:12:13;5.10;;;4.07;;
8663;SDS011;4369;47.842;13.096;2023-05-10T06:14:40;6.27;;;4.40;;
8663;SDS011;4369;47.842;13.096;2023-05-10T06:17:07;5.40;;;4.80;;
8663;SDS011;4369;47.842;13.096;2023-05-10T06:19:34;5.50;;;4.23;;
8663;SDS011;4369;47.842;13.096;2023-05-10T06:22:03;2.77;;;2.57;;
8663;SDS011;4369;47.842;13.096;2023-05-10T06:24:30;2.80;;;2.60;;
8663;SDS011;4369;47.842;13.096;2023-05-10T06:26:57;3.57;;;3.13;;
8663;SDS011;4369;47.842;13.096;2023-05-10T06:29:25;4.87;;;3.10;;
8663;SDS011;4369;47.842;13.096;2023-05-10T06:31:52;3.77;;;2.90;;
8663;SDS011;4369;47.842;13.096;2023-05-10T06:34:19;3.80;;;2.50;;
8663;SDS011;4369;47.842;13.096;2023-05-10T06:36:46;3.90;;;2.30;;
8663;SDS011;4369;47.842;13.096;2023-05-10T06:39:14;3.53;;;2.27;;
8663;SDS011;4369;47.842;13.096;2023-05-10T06:41:41;2.20;;;2.10;;
8663;SDS011;4369;47.842;13.096;2023-05-10T06:44:09;2.60;;;2.40;;
8663;SDS011;4369;47.842;13.096;2023-05-10T06:46:36;3.90;;;2.80;;
8663;SDS011;4369;47.842;13.096;2023-05-10T06:49:02;4.40;;;4.00;;
8663;SDS011;4369;47.842;13.096;2023-05-10T06:51:29;7.40;;;5.23;;
8663;SDS011;4369;47.842;13.096;2023-05-10T06:53:57;5.90;;;4.23;;
8663;SDS011;4369;47.842;13.096;2023-05-10T06:56:26;7.43;;;4.87;;
8663;SDS011;4369;47.842;13.096;2023-05-10T06:58:53;5.03;;;3.80;;
8663;SDS011;4369;47.842;13.096;2023-05-10T07:01:20;7.20;;;4.83;;
8663;SDS011;4369;47.842;13.096;2023-05-10T07:03:47;5.60;;;4.80;;
8663;SDS011;4369;47.842;13.096;2023-05-10T07:06:14;7.90;;;6.00;;
8663;SDS011;4369;47.842;13.096;2023-05-10T07:08:41;4.80;;;4.30;;
8663;SDS011;4369;47.842;13.096;2023-05-10T07:11:08;8.23;;;4.27;;
8663;SDS011;4369;47.842;13.096;2023-05-10T07:13:36;6.70;;;5.10;;
8663;SDS011;4369;47.842;13.096;2023-05-10T07:16:06;5.00;;;3.63;;
8663;SDS011;4369;47.842;13.096;2023-05-10T07:18:33;5.03;;;4.30;;
8663;SDS011;4369;47.842;13.096;2023-05-10T07:21:00;6.07;;;4.83;;
8663;SDS011;4369;47.842;13.096;2023-05-10T07:23:27;5.20;;;4.70;;
8663;SDS011;4369;47.842;13.096;2023-05-10T07:25:54;6.87;;;5.87;;
8663;SDS011;4369;47.842;13.096;2023-05-10T07:28:22;5.30;;;4.80;;
8663;SDS011;4369;47.842;13.096;2023-05-10T07:30:51;6.73;;;6.00;;
8663;SDS011;4369;47.842;13.096;2023-05-10T07:33:18;7.60;;;6.10;;
8663;SDS011;4369;47.842;13.096;2023-05-10T07:35:45;6.83;;;5.20;;
8663;SDS011;4369;47.842;13.096;2023-05-10T07:38:12;6.87;;;5.07;;
8663;SDS011;4369;47.842;13.096;2023-05-10T07:40:39;5.20;;;4.70;;
8663;SDS011;4369;47.842;13.096;2023-05-10T07:43:06;6.00;;;5.37;;
8663;SDS011;4369;47.842;13.096;2023-05-10T07:45:33;9.87;;;6.03;;
8663;SDS011;4369;47.842;13.096;2023-05-10T07:48:01;6.87;;;5.60;;
8663;SDS011;4369;47.842;13.096;2023-05-10T07:50:28;4.90;;;4.10;;
8663;SDS011;4369;47.842;13.096;2023-05-10T07:52:55;5.37;;;4.87;;
8663;SDS011;4369;47.842;13.096;2023-05-10T07:55:22;7.87;;;5.43;;
8663;SDS011;4369;47.842;13.096;2023-05-10T07:57:49;10.03;;;7.30;;
8663;SDS011;4369;47.842;13.096;2023-05-10T08:00:16;7.10;;;5.87;;
8663;SDS011;4369;47.842;13.096;2023-05-10T08:02:44;10.73;;;7.50;;
8663;SDS011;4369;47.842;13.096;2023-05-10T08:05:13;7.43;;;5.93;;
8663;SDS011;4369;47.842;13.096;2023-05-10T08:07:40;6.57;;;5.83;;
8663;SDS011;4369;47.842;13.096;2023-05-10T08:10:08;6.87;;;5.80;;
8663;SDS011;4369;47.842;13.096;2023-05-10T08:12:36;9.17;;;5.43;;
8663;SDS011;4369;47.842;13.096;2023-05-10T08:15:03;4.30;;;3.87;;
8663;SDS011;4369;47.842;13.096;2023-05-10T08:17:30;4.10;;;3.67;;
8663;SDS011;4369;47.842;13.096;2023-05-10T08:19:57;6.73;;;5.10;;
8663;SDS011;4369;47.842;13.096;2023-05-10T08:22:25;5.30;;;4.80;;
8663;SDS011;4369;47.842;13.096;2023-05-10T08:24:52;6.80;;;5.70;;
8663;SDS011;4369;47.842;13.096;2023-05-10T08:27:19;5.83;;;5.33;;
8663;SDS011;4369;47.842;13.096;2023-05-10T08:29:46;8.33;;;5.70;;
8663;SDS011;4369;47.842;13.096;2023-05-10T08:32:13;5.90;;;5.30;;
8663;SDS011;4369;47.842;13.096;2023-05-10T08:34:39;5.33;;;4.83;;
8663;SDS011;4369;47.842;13.096;2023-05-10T08:37:06;6.17;;;4.90;;
8663;SDS011;4369;47.842;13.096;2023-05-10T08:39:35;7.07;;;4.97;;
8663;SDS011;4369;47.842;13.096;2023-05-10T08:42:03;4.07;;;3.67;;
8663;SDS011;4369;47.842;13.096;2023-05-10T08:44:31;6.87;;;5.90;;
8663;SDS011;4369;47.842;13.096;2023-05-10T08:47:00;8.00;;;6.13;;
8663;SDS011;4369;47.842;13.096;2023-05-10T08:49:31;6.97;;;5.50;;
8663;SDS011;4369;47.842;13.096;2023-05-10T08:51:59;9.90;;;7.10;;
8663;SDS011;4369;47.842;13.096;2023-05-10T08:54:29;6.93;;;5.57;;
8663;SDS011;4369;47.842;13.096;2023-05-10T08:56:58;6.60;;;5.53;;
8663;SDS011;4369;47.842;13.096;2023-05-10T08:59:25;6.53;;;4.60;;
8663;SDS011;4369;47.842;13.096;2023-05-10T09:01:53;6.17;;;4.17;;
8663;SDS011;4369;47.842;13.096;2023-05-10T09:04:21;8.27;;;5.00;;
8663;SDS011;4369;47.842;13.096;2023-05-10T09:06:49;6.73;;;4.67;;
8663;SDS011;4369;47.842;13.096;2023-05-10T09:09:16;4.97;;;3.10;;
8663;SDS011;4369;47.842;13.096;2023-05-10T09:11:43;6.43;;;3.67;;
8663;SDS011;4369;47.842;13.096;2023-05-10T09:14:12;4.63;;;4.17;;
8663;SDS011;4369;47.842;13.096;2023-05-10T09:16:39;5.13;;;3.87;;
8663;SDS011;4369;47.842;13.096;2023-05-10T09:19:07;5.63;;;4.63;;
8663;SDS011;4369;47.842;13.096;2023-05-10T09:21:34;4.27;;;3.30;;
8663;SDS011;4369;47.842;13.096;2023-05-10T09:24:03;4.70;;;3.90;;
8663;SDS011;4369;47.842;13.096;2023-05-10T09:26:30;3.90;;;3.60;;
8663;SDS011;4369;47.842;13.096;2023-05-10T09:28:58;4.57;;;4.03;;
8663;SDS011;4369;47.842;13.096;2023-05-10T09:34:13;4.93;;;4.10;;
8663;SDS011;4369;47.842;13.096;2023-05-10T09:36:52;4.33;;;3.93;;
8663;SDS011;4369;47.842;13.096;2023-05-10T09:39:21;4.07;;;3.20;;
8663;SDS011;4369;47.842;13.096;2023-05-10T09:41:57;6.60;;;3.17;;
8663;SDS011;4369;47.842;13.096;2023-05-10T09:44:25;4.53;;;3.67;;
8663;SDS011;4369;47.842;13.096;2023-05-10T09:46:53;5.00;;;3.30;;
8663;SDS011;4369;47.842;13.096;2023-05-10T09:49:20;3.43;;;3.13;;
8663;SDS011;4369;47.842;13.096;2023-05-10T09:51:56;3.83;;;3.20;;
8663;SDS011;4369;47.842;13.096;2023-05-10T09:54:28;4.90;;;3.30;;
8663;SDS011;4369;47.842;13.096;2023-05-10T09:56:54;4.47;;;3.27;;
8663;SDS011;4369;47.842;13.096;2023-05-10T09:59:21;4.17;;;2.93;;
8663;SDS011;4369;47.842;13.096;2023-05-10T10:01:51;4.53;;;3.97;;
8663;SDS011;4369;47.842;13.096;2023-05-10T10:04:21;5.80;;;4.10;;
8663;SDS011;4369;47.842;13.096;2023-05-10T10:06:58;5.73;;;4.40;;
8663;SDS011;4369;47.842;13.096;2023-05-10T10:09:26;4.07;;;3.67;;
8663;SDS011;4369;47.842;13.096;2023-05-10T10:11:54;5.07;;;4.03;;
8663;SDS011;4369;47.842;13.096;2023-05-10T10:14:21;4.93;;;4.43;;
8663;SDS011;4369;47.842;13.096;2023-05-10T10:16:49;5.37;;;3.97;;
8663;SDS011;4369;47.842;13.096;2023-05-10T10:19:17;4.53;;;3.80;;
8663;SDS011;4369;47.842;13.096;2023-05-10T10:21:45;7.27;;;5.00;;
8663;SDS011;4369;47.842;13.096;2023-05-10T10:24:11;7.97;;;4.60;;
8663;SDS011;4369;47.842;13.096;2023-05-10T10:26:38;4.37;;;3.83;;
8663;SDS011;4369;47.842;13.096;2023-05-10T10:29:09;6.13;;;4.47;;
8663;SDS011;4369;47.842;13.096;2023-05-10T10:31:45;4.97;;;4.47;;
8663;SDS011;4369;47.842;13.096;2023-05-10T10:34:21;4.80;;;4.40;;
8663;SDS011;4369;47.842;13.096;2023-05-10T10:36:53;4.60;;;4.07;;
8663;SDS011;4369;47.842;13.096;2023-05-10T10:39:21;7.10;;;4.87;;
8663;SDS011;4369;47.842;13.096;2023-05-10T10:41:50;4.13;;;3.83;;
8663;SDS011;4369;47.842;13.096;2023-05-10T10:44:25;3.40;;;2.87;;
8663;SDS011;4369;47.842;13.096;2023-05-10T10:47:00;5.17;;;3.17;;
8663;SDS011;4369;47.842;13.096;2023-05-10T10:49:32;3.17;;;2.30;;
8663;SDS011;4369;47.842;13.096;2023-05-10T10:52:17;2.67;;;2.47;;
8663;SDS011;4369;47.842;13.096;2023-05-10T10:54:56;3.37;;;2.20;;
8663;SDS011;4369;47.842;13.096;2023-05-10T10:57:25;3.10;;;2.90;;
8663;SDS011;4369;47.842;13.096;2023-05-10T10:59:58;2.90;;;2.70;;
8663;SDS011;4369;47.842;13.096;2023-05-10T11:02:49;2.67;;;2.40;;
8663;SDS011;4369;47.842;13.096;2023-05-10T11:05:27;3.40;;;2.50;;
8663;SDS011;4369;47.842;13.096;2023-05-10T11:08:07;2.53;;;2.33;;
8663;SDS011;4369;47.842;13.096;2023-05-10T11:10:40;1.57;;;1.47;;
8663;SDS011;4369;47.842;13.096;2023-05-10T11:13:17;5.70;;;1.80;;
8663;SDS011;4369;47.842;13.096;2023-05-10T11:15:54;3.47;;;1.93;;
8663;SDS011;4369;47.842;13.096;2023-05-10T11:18:23;3.03;;;1.70;;
8663;SDS011;4369;47.842;13.096;2023-05-10T11:20:52;2.80;;;1.80;;
8663;SDS011;4369;47.842;13.096;2023-05-10T11:23:23;1.30;;;1.20;;
8663;SDS011;4369;47.842;13.096;2023-05-10T11:25:55;3.07;;;1.70;;
8663;SDS011;4369;47.842;13.096;2023-05-10T11:28:22;2.37;;;1.67;;
8663;SDS011;4369;47.842;13.096;2023-05-10T11:30:50;1.90;;;1.80;;
8663;SDS011;4369;47.842;13.096;2023-05-10T11:33:17;2.80;;;2.30;;
8663;SDS011;4369;47.842;13.096;2023-05-10T11:35:45;3.30;;;2.40;;
8663;SDS011;4369;47.842;13.096;2023-05-10T11:38:14;2.50;;;2.30;;
8663;SDS011;4369;47.842;13.096;2023-05-10T11:40:41;2.63;;;2.43;;
8663;SDS011;4369;47.842;13.096;2023-05-10T11:43:08;3.27;;;2.53;;
8663;SDS011;4369;47.842;13.096;2023-05-10T11:45:37;3.23;;;2.10;;
8663;SDS011;4369;47.842;13.096;2023-05-10T11:48:06;5.17;;;2.53;;
8663;SDS011;4369;47.842;13.096;2023-05-10T11:50:33;2.63;;;2.10;;
8663;SDS011;4369;47.842;13.096;2023-05-10T11:53:00;2.70;;;2.33;;
8663;SDS011;4369;47.842;13.096;2023-05-10T11:55:28;2.60;;;2.40;;
8663;SDS011;4369;47.842;13.096;2023-05-10T11:57:59;4.70;;;3.10;;
8663;SDS011;4369;47.842;13.096;2023-05-10T12:00:27;4.10;;;2.80;;
8663;SDS011;4369;47.842;13.096;2023-05-10T12:02:54;5.20;;;2.50;;
8663;SDS011;4369;47.842;13.096;2023-05-10T12:05:21;5.67;;;2.70;;
8663;SDS011;4369;47.842;13.096;2023-05-10T12:07:48;2.83;;;2.40;;
8663;SDS011;4369;47.842;13.096;2023-05-10T12:10:15;3.33;;;2.20;;
8663;SDS011;4369;47.842;13.096;2023-05-10T12:12:44;2.47;;;2.20;;
8663;SDS011;4369;47.842;13.096;2023-05-10T12:15:13;3.53;;;2.50;;
8663;SDS011;4369;47.842;13.096;2023-05-10T12:17:44;2.73;;;2.43;;
8663;SDS011;4369;47.842;13.096;2023-05-10T12:20:16;1.97;;;1.87;;
8663;SDS011;4369;47.842;13.096;2023-05-10T12:22:44;4.43;;;3.10;;
8663;SDS011;4369;47.842;13.096;2023-05-10T12:25:12;2.60;;;2.40;;
8663;SDS011;4369;47.842;13.096;2023-05-10T12:27:39;2.10;;;1.93;;
8663;SDS011;4369;47.842;13.096;2023-05-10T12:30:07;3.70;;;2.03;;
8663;SDS011;4369;47.842;13.096;2023-05-10T12:32:38;2.47;;;2.13;;
8663;SDS011;4369;47.842;13.096;2023-05-10T12:35:06;2.53;;;2.07;;
8663;SDS011;4369;47.842;13.096;2023-05-10T12:37:34;2.83;;;2.10;;
8663;SDS011;4369;47.842;13.096;2023-05-10T12:40:05;3.33;;;2.27;;
8663;SDS011;4369;47.842;13.096;2023-05-10T12:42:34;3.13;;;2.23;;
8663;SDS011;4369;47.842;13.096;2023-05-10T12:45:01;2.83;;;2.30;;
8663;SDS011;4369;47.842;13.096;2023-05-10T12:47:30;2.30;;;2.10;;
8663;SDS011;4369;47.842;13.096;2023-05-10T12:49:57;2.47;;;2.27;;
8663;SDS011;4369;47.842;13.096;2023-05-10T12:52:24;1.80;;;1.70;;
8663;SDS011;4369;47.842;13.096;2023-05-10T12:54:51;2.57;;;2.33;;
8663;SDS011;4369;47.842;13.096;2023-05-10T12:57:18;2.20;;;2.00;;
8663;SDS011;4369;47.842;13.096;2023-05-10T12:59:46;2.33;;;2.00;;
8663;SDS011;4369;47.842;13.096;2023-05-10T13:02:13;3.30;;;2.27;;
8663;SDS011;4369;47.842;13.096;2023-05-10T13:04:41;2.23;;;2.00;;
8663;SDS011;4369;47.842;13.096;2023-05-10T13:07:08;2.07;;;1.80;;
8663;SDS011;4369;47.842;13.096;2023-05-10T13:09:35;2.00;;;1.60;;
8663;SDS011;4369;47.842;13.096;2023-05-10T13:12:02;1.90;;;1.70;;
8663;SDS011;4369;47.842;13.096;2023-05-10T13:14:29;1.60;;;1.50;;
8663;SDS011;4369;47.842;13.096;2023-05-10T13:16:57;1.80;;;1.70;;
8663;SDS011;4369;47.842;13.096;2023-05-10T13:19:23;2.53;;;2.10;;
8663;SDS011;4369;47.842;13.096;2023-05-10T13:21:53;6.37;;;2.20;;
8663;SDS011;4369;47.842;13.096;2023-05-10T13:24:19;2.90;;;1.60;;
8663;SDS011;4369;47.842;13.096;2023-05-10T13:26:46;3.45;;;2.25;;
8663;SDS011;4369;47.842;13.096;2023-05-10T13:29:13;1.83;;;1.73;;
8663;SDS011;4369;47.842;13.096;2023-05-10T13:31:43;2.10;;;2.00;;
8663;SDS011;4369;47.842;13.096;2023-05-10T13:34:29;2.23;;;2.10;;
8663;SDS011;4369;47.842;13.096;2023-05-10T13:36:57;4.60;;;2.20;;
8663;SDS011;4369;47.842;13.096;2023-05-10T13:39:24;2.30;;;2.00;;
8663;SDS011;4369;47.842;13.096;2023-05-10T13:41:51;2.60;;;2.40;;
8663;SDS011;4369;47.842;13.096;2023-05-10T13:44:17;2.33;;;2.00;;
8663;SDS011;4369;47.842;13.096;2023-05-10T13:46:46;2.40;;;2.20;;
8663;SDS011;4369;47.842;13.096;2023-05-10T13:49:13;2.23;;;2.13;;
8663;SDS011;4369;47.842;13.096;2023-05-10T13:51:40;2.67;;;2.47;;
8663;SDS011;4369;47.842;13.096;2023-05-10T13:54:09;3.60;;;2.60;;
8663;SDS011;4369;47.842;13.096;2023-05-10T13:56:36;2.70;;;2.40;;
8663;SDS011;4369;47.842;13.096;2023-05-10T13:59:03;3.33;;;2.33;;
8663;SDS011;4369;47.842;13.096;2023-05-10T14:01:30;2.30;;;2.10;;
8663;SDS011;4369;47.842;13.096;2023-05-10T14:03:57;2.43;;;2.23;;
8663;SDS011;4369;47.842;13.096;2023-05-10T14:06:24;2.40;;;2.20;;
8663;SDS011;4369;47.842;13.096;2023-05-10T14:08:52;2.33;;;2.13;;
8663;SDS011;4369;47.842;13.096;2023-05-10T14:11:20;2.10;;;2.00;;
8663;SDS011;4369;47.842;13.096;2023-05-10T14:13:47;2.90;;;2.60;;
8663;SDS011;4369;47.842;13.096;2023-05-10T14:16:13;2.20;;;2.10;;
8663;SDS011;4369;47.842;13.096;2023-05-10T14:18:40;2.50;;;2.30;;
8663;SDS011;4369;47.842;13.096;2023-05-10T14:21:07;3.07;;;2.20;;
8663;SDS011;4369;47.842;13.096;2023-05-10T14:23:34;5.20;;;1.60;;
8663;SDS011;4369;47.842;13.096;2023-05-10T14:26:01;2.40;;;1.23;;
8663;SDS011;4369;47.842;13.096;2023-05-10T14:28:29;3.43;;;1.30;;
8663;SDS011;4369;47.842;13.096;2023-05-10T14:30:56;1.30;;;1.13;;
8663;SDS011;4369;47.842;13.096;2023-05-10T14:33:24;3.93;;;1.50;;
8663;SDS011;4369;47.842;13.096;2023-05-10T14:35:51;5.90;;;1.60;;
8663;SDS011;4369;47.842;13.096;2023-05-10T14:38:17;5.37;;;1.50;;
8663;SDS011;4369;47.842;13.096;2023-05-10T14:40:44;0.90;;;0.90;;
8663;SDS011;4369;47.842;13.096;2023-05-10T14:43:12;2.57;;;1.40;;
8663;SDS011;4369;47.842;13.096;2023-05-10T14:45:40;2.53;;;1.53;;
8663;SDS011;4369;47.842;13.096;2023-05-10T14:48:07;1.03;;;1.00;;
8663;SDS011;4369;47.842;13.096;2023-05-10T14:50:37;3.13;;;1.67;;
8663;SDS011;4369;47.842;13.096;2023-05-10T14:53:04;2.30;;;0.80;;
8663;SDS011;4369;47.842;13.096;2023-05-10T14:55:31;0.83;;;0.83;;
8663;SDS011;4369;47.842;13.096;2023-05-10T14:57:59;2.57;;;1.80;;
8663;SDS011;4369;47.842;13.096;2023-05-10T15:00:27;1.87;;;1.10;;
8663;SDS011;4369;47.842;13.096;2023-05-10T15:02:56;0.70;;;0.70;;
8663;SDS011;4369;47.842;13.096;2023-05-10T15:05:23;0.87;;;0.87;;
8663;SDS011;4369;47.842;13.096;2023-05-10T15:07:50;2.33;;;1.70;;
8663;SDS011;4369;47.842;13.096;2023-05-10T15:10:17;2.10;;;1.27;;
8663;SDS011;4369;47.842;13.096;2023-05-10T15:12:44;2.33;;;1.00;;
8663;SDS011;4369;47.842;13.096;2023-05-10T15:15:11;4.10;;;0.90;;